Time;durP1;ratioP1;P1;durP2;ratioP2;P2;SDS_P1;SDS_P2;PMS_P1;PMS_P2;Temp;Humidity;BMP_temperature;BMP_pressure;BME280_temperature;BME280_humidity;BME280_pressure;Samples;Min_cycle;Max_cycle;Signal;HPM_P1;HPM_P2
2022/02/02 00:01:21;;;;;;;10.57;3.85;;;;;;;17.11;51.62;101647.31;5018195;28;20024;-76
2022/02/02 00:03:51;;;;;;;11.82;4.65;;;;;;;17.10;51.67;101653.41;5036025;28;20327;-76
2022/02/02 00:06:34;;;;;;;10.70;3.95;;;;;;;17.11;51.52;101649.06;5017878;28;20033;-77
2022/02/02 00:09:08;;;;;;;9.38;4.28;;;;;;;17.10;51.63;101650.81;5004023;28;20022;-77
2022/02/02 00:17:33;;;;;;;;;;;;;;;17.10;51.52;101643.00;5036079;28;20024;-77
2022/02/02 00:20:00;;;;;;;14.60;4.10;;;;;;;17.11;51.46;101646.47;5031431;28;19916;-78
2022/02/02 00:22:33;;;;;;;10.18;4.05;;;;;;;17.11;51.42;101636.06;4989685;28;20053;-78
2022/02/02 00:25:24;;;;;;;12.18;4.45;;;;;;;17.10;51.53;101642.13;5002171;28;20475;-78
2022/02/02 00:27:48;;;;;;;9.07;4.00;;;;;;;17.09;51.48;101633.44;5006253;28;20388;-78
2022/02/02 00:30:18;;;;;;;11.68;4.03;;;;;;;17.08;51.31;101630.84;4986005;28;20410;-77
2022/02/02 00:35:10;;;;;;;10.63;4.00;;;;;;;17.10;51.34;101621.34;5035099;28;20029;-76
2022/02/02 00:37:35;;;;;;;12.85;4.38;;;;;;;17.10;51.61;101631.72;5000439;28;20017;-77
2022/02/02 00:40:01;;;;;;;13.40;4.25;;;;;;;17.09;51.29;101645.56;5001665;28;20036;-87
2022/02/02 00:42:29;;;;;;;13.85;4.53;;;;;;;17.09;51.33;101637.78;5001503;28;20040;-88
2022/02/02 00:44:58;;;;;;;11.13;3.92;;;;;;;17.07;51.32;101645.56;5018808;28;20527;-86
2022/02/02 00:47:25;;;;;;;10.80;4.13;;;;;;;17.08;51.17;101651.66;5017489;28;20033;-85
2022/02/02 00:49:52;;;;;;;8.60;3.83;;;;;;;17.08;51.37;101659.47;5002199;28;20068;-87
2022/02/02 00:52:19;;;;;;;9.80;3.83;;;;;;;17.08;51.48;101652.53;5018936;28;20095;-87
2022/02/02 00:54:46;;;;;;;12.10;4.30;;;;;;;17.08;51.14;101657.72;5018219;28;20037;-85
2022/02/02 00:57:12;;;;;;;12.27;3.92;;;;;;;17.08;51.39;101651.66;5018085;28;20030;-77
2022/02/02 00:59:38;;;;;;;11.60;3.90;;;;;;;17.07;51.17;101648.16;5000709;28;20356;-79
2022/02/02 01:02:03;;;;;;;12.27;4.18;;;;;;;17.07;51.24;101653.38;5000716;28;20025;-78
2022/02/02 01:04:29;;;;;;;10.82;4.13;;;;;;;17.06;51.33;101636.03;4984427;28;20053;-77
2022/02/02 01:09:52;;;;;;;11.25;4.53;;;;;;;17.06;51.17;101641.25;5017561;28;20527;-78
2022/02/02 01:20:29;;;;;;;10.77;3.90;;;;;;;17.06;50.84;101649.03;5034713;28;20029;-77
2022/02/02 01:28:24;;;;;;;7.85;3.53;;;;;;;17.05;51.23;101655.97;5005602;28;20399;-77
2022/02/02 01:30:50;;;;;;;9.95;4.10;;;;;;;17.04;50.98;101661.16;5000000;28;20025;-76
2022/02/02 01:33:16;;;;;;;11.77;3.95;;;;;;;17.04;51.26;101656.81;5000146;28;20065;-78
2022/02/02 01:35:43;;;;;;;10.10;4.00;;;;;;;17.04;50.96;101658.56;4983669;28;20065;-76
2022/02/02 01:38:09;;;;;;;11.57;4.25;;;;;;;17.04;50.83;101677.63;4984078;28;20123;-78
2022/02/02 01:40:39;;;;;;;12.48;4.38;;;;;;;17.04;51.09;101668.97;5033826;28;20560;-77
2022/02/02 01:43:16;;;;;;;10.93;4.70;;;;;;;17.04;50.96;101698.44;5016092;28;20031;-78
2022/02/02 01:45:52;;;;;;;14.13;4.38;;;;;;;17.03;51.03;101691.50;4986646;28;20120;-78
2022/02/02 01:56:07;;;;;;;11.90;4.55;;;;;;;17.03;50.96;101698.44;5033929;28;20033;-76
2022/02/02 02:01:11;;;;;;;11.85;4.30;;;;;;;17.03;51.05;101719.25;5017779;28;20025;-77
2022/02/02 02:03:37;;;;;;;9.80;3.60;;;;;;;17.02;51.00;101705.34;4999544;28;20609;-79
2022/02/02 02:06:04;;;;;;;9.52;3.72;;;;;;;17.03;51.06;101711.44;4999698;28;20029;-77
2022/02/02 02:08:29;;;;;;;10.77;4.15;;;;;;;17.02;50.79;101704.50;5015760;28;20025;-76
2022/02/02 02:10:55;;;;;;;9.25;3.95;;;;;;;17.02;51.03;101710.56;5015977;28;20033;-77
2022/02/02 02:14:38;;;;;;;12.90;4.10;;;;;;;17.02;50.74;101707.94;5015993;28;20426;-77
2022/02/02 02:16:17;;;;;;;12.98;4.18;;;;;;;17.01;51.12;101714.03;5006183;28;20029;-77
2022/02/02 02:18:42;;;;;;;8.50;3.78;;;;;;;17.02;51.15;101715.75;5015945;28;20494;-75
2022/02/02 02:21:14;;;;;;;10.45;4.25;;;;;;;17.02;50.74;101717.50;4999349;28;20083;-76
2022/02/02 02:23:44;;;;;;;11.88;4.10;;;;;;;17.01;50.93;101701.03;5033339;28;20049;-77
2022/02/02 02:26:11;;;;;;;9.48;3.67;;;;;;;17.02;50.95;101723.56;4999464;28;20037;-77
2022/02/02 02:28:55;;;;;;;10.77;4.13;;;;;;;17.01;51.06;101711.44;4999702;28;20503;-78
2022/02/02 02:31:54;;;;;;;10.15;4.10;;;;;;;17.02;50.98;101722.69;4988119;28;20025;-76
2022/02/02 02:34:34;;;;;;;11.63;3.78;;;;;;;17.02;51.30;101717.50;5032659;28;20041;-77
2022/02/02 02:56:00;;;;;;;8.43;3.63;;;;;;;16.99;50.86;101689.75;5018424;28;20491;-75
2022/02/02 03:29:46;;;;;;;10.55;3.45;;;;;;;16.98;50.91;101708.78;5037023;28;20087;-77
2022/02/02 03:50:43;;;;;;;10.30;3.70;;;;;;;16.96;50.85;101726.13;5008887;28;20045;-80
2022/02/02 03:55:44;;;;;;;10.48;3.80;;;;;;;16.96;50.73;101718.34;5022230;28;20029;-77
2022/02/02 03:58:18;;;;;;;9.85;3.60;;;;;;;16.95;50.90;101716.56;4992450;28;20479;-76
2022/02/02 04:03:44;;;;;;;7.50;3.30;;;;;;;16.95;50.74;101728.72;5023231;28;20029;-80
2022/02/02 04:06:16;;;;;;;9.95;3.55;;;;;;;16.95;50.85;101733.91;5009124;28;20033;-77
2022/02/02 04:08:41;;;;;;;9.32;3.28;;;;;;;16.95;50.59;101750.38;5005082;28;20487;-76
2022/02/02 04:11:25;;;;;;;11.07;3.90;;;;;;;16.95;50.71;101737.38;5018052;28;20064;-77
2022/02/02 04:17:30;;;;;;;9.63;3.75;;;;;;;16.94;50.67;101735.66;5036188;28;20065;-76
2022/02/02 04:52:17;;;;;;;;;;;;;;;16.92;50.59;101784.16;5020585;28;20045;-78
2022/02/02 04:54:50;;;;;;;10.05;3.50;;;;;;;16.92;50.76;101789.38;5033493;28;19909;-77
2022/02/02 05:03:17;;;;;;;8.93;3.67;;;;;;;16.92;50.73;101778.97;5033996;28;19913;-84
2022/02/02 05:05:39;;;;;;;9.75;3.60;;;;;;;16.90;50.99;101780.69;5034715;28;20033;-86
2022/02/02 05:16:05;;;;;;;8.30;3.33;;;;;;;16.90;50.62;101806.69;5035075;28;19912;-88
2022/02/02 05:22:11;;;;;;;;;;;;;;;16.89;50.67;101817.06;5035475;28;20056;-86
2022/02/02 05:43:44;;;;;;;10.55;3.47;;;;;;;16.94;50.50;101820.56;5034353;28;19916;-78
2022/02/02 05:48:27;;;;;;;9.50;3.40;;;;;;;16.93;50.54;101819.69;5017635;28;20547;-79
2022/02/02 05:53:20;;;;;;;10.48;3.45;;;;;;;16.94;50.46;101825.75;5033813;28;20017;-78
2022/02/02 05:55:47;;;;;;;8.93;3.45;;;;;;;16.93;50.51;101831.84;5000097;28;20029;-78
2022/02/02 05:58:14;;;;;;;8.65;3.17;;;;;;;16.93;50.55;101830.09;5000097;28;20533;-78
2022/02/02 06:00:40;;;;;;;9.27;3.55;;;;;;;16.93;50.35;101835.28;5016398;28;20072;-82
2022/02/02 06:03:14;;;;;;;8.18;3.55;;;;;;;16.94;50.55;101838.75;4983613;28;20021;-77
2022/02/02 06:05:42;;;;;;;8.88;3.33;;;;;;;16.93;50.33;101856.09;5016110;28;20032;-78
2022/02/02 06:08:13;;;;;;;11.52;3.30;;;;;;;16.94;50.36;101850.06;5033729;28;20061;-83
2022/02/02 06:10:40;;;;;;;15.20;4.97;;;;;;;16.99;50.65;101839.69;5033566;28;20021;-75
2022/02/02 06:13:05;;;;;;;19.95;5.45;;;;;;;17.02;50.87;101829.31;5015752;28;20027;-77
2022/02/02 06:15:32;;;;;;;15.88;5.43;;;;;;;17.14;51.41;101820.75;5015905;28;20021;-89
2022/02/02 06:18:00;;;;;;;22.48;5.35;;;;;;;17.16;50.98;101832.00;5034069;28;20029;-88
2022/02/02 06:20:26;;;;;;;15.63;5.25;;;;;;;17.11;51.39;101838.91;5016318;28;20025;-87
2022/02/02 06:23:01;;;;;;;13.43;4.70;;;;;;;17.06;51.26;101844.06;4983912;28;20033;-87
2022/02/02 06:25:35;;;;;;;17.45;4.68;;;;;;;17.04;51.22;101833.66;5016429;28;20028;-88
2022/02/02 06:28:09;;;;;;;18.85;4.65;;;;;;;17.03;51.10;101834.53;5016349;28;20499;-88
2022/02/02 06:30:35;;;;;;;14.40;4.57;;;;;;;17.02;51.12;101837.97;5000689;28;20368;-89
2022/02/02 06:33:04;;;;;;;14.95;4.32;;;;;;;17.02;51.30;101821.50;5016880;28;20036;-88
2022/02/02 06:35:31;;;;;;;10.43;4.30;;;;;;;17.04;51.12;101848.41;5018456;28;20360;-76
2022/02/02 06:37:57;;;;;;;10.07;4.38;;;;;;;17.03;51.43;101842.31;5003280;28;20025;-76
2022/02/02 06:40:23;;;;;;;14.40;4.38;;;;;;;17.02;51.22;101856.16;5037448;28;20396;-75
2022/02/02 06:42:51;;;;;;;11.30;4.22;;;;;;;17.03;51.08;101851.88;5020598;28;20025;-76
2022/02/02 06:45:18;;;;;;;12.95;3.85;;;;;;;17.02;51.18;101871.78;5004401;28;20083;-75
2022/02/02 06:47:47;;;;;;;11.55;4.22;;;;;;;17.03;51.28;101881.34;5019299;28;20053;-75
2022/02/02 06:53:19;;;;;;;9.53;3.87;;;;;;;17.05;51.08;101886.56;5037422;28;20029;-76
2022/02/02 06:56:12;;;;;;;8.75;3.67;;;;;;;17.05;50.85;101881.38;5019719;28;20032;-76
2022/02/02 06:59:10;;;;;;;9.27;4.00;;;;;;;17.04;51.20;101890.00;5037402;28;20418;-76
2022/02/02 07:15:23;;;;;;;11.70;3.75;;;;;;;17.06;51.01;101909.09;5022789;28;20083;-78
2022/02/02 07:20:31;;;;;;;8.48;3.35;;;;;;;17.09;50.88;101905.66;5040932;28;20037;-79
2022/02/02 07:28:10;;;;;;;11.20;3.60;;;;;;;17.09;50.84;101935.13;5007014;28;20046;-79
2022/02/02 07:30:49;;;;;;;9.65;3.72;;;;;;;17.10;51.04;101933.41;5022763;28;20032;-81
2022/02/02 07:33:25;;;;;;;9.45;3.60;;;;;;;17.10;51.10;101931.69;5022031;28;20025;-80
2022/02/02 07:36:06;;;;;;;9.23;3.40;;;;;;;17.11;50.99;101937.75;5040374;28;20026;-78
2022/02/02 07:38:44;;;;;;;7.57;3.55;;;;;;;17.12;51.34;101934.31;5024906;28;20040;-79
2022/02/02 07:41:16;;;;;;;9.32;3.45;;;;;;;17.11;51.30;101930.81;5023945;28;20025;-79
2022/02/02 07:43:45;;;;;;;11.43;3.45;;;;;;;17.12;51.28;101945.56;5023259;28;20022;-78
2022/02/02 07:46:13;;;;;;;10.65;3.40;;;;;;;17.13;51.13;101955.09;4988746;28;20443;-79
2022/02/02 07:48:41;;;;;;;11.88;3.60;;;;;;;17.13;51.01;101964.63;5019629;28;20461;-77
2022/02/02 07:51:09;;;;;;;8.45;3.45;;;;;;;17.13;51.17;101962.91;5019927;28;20053;-78
2022/02/02 07:53:48;;;;;;;7.85;3.45;;;;;;;17.14;51.54;101964.66;5037227;28;20034;-78
2022/02/02 07:56:16;;;;;;;10.68;3.55;;;;;;;17.16;51.32;101969.88;5004354;28;20057;-78
2022/02/02 07:58:46;;;;;;;10.55;3.30;;;;;;;17.16;51.01;101972.47;5019101;28;20430;-77
2022/02/02 08:01:14;;;;;;;8.73;3.22;;;;;;;17.16;51.07;101960.34;5003060;28;20029;-78
2022/02/02 08:03:43;;;;;;;10.88;3.47;;;;;;;17.18;50.99;101965.53;5036573;28;20431;-77
2022/02/02 08:06:10;;;;;;;8.38;3.17;;;;;;;17.19;51.09;101975.97;5004089;28;20436;-77
2022/02/02 08:08:38;;;;;;;9.40;3.33;;;;;;;17.20;51.21;101976.84;5019565;28;20029;-78
2022/02/02 08:11:08;;;;;;;9.13;3.50;;;;;;;17.21;51.04;101989.00;4987164;28;20025;-77
2022/02/02 08:13:44;;;;;;;8.10;3.00;;;;;;;17.22;50.97;101985.53;5002900;28;20038;-78
2022/02/02 08:16:13;;;;;;;8.30;3.17;;;;;;;17.23;50.89;101988.16;5018704;28;20024;-79
2022/02/02 08:18:42;;;;;;;7.38;3.03;;;;;;;17.25;50.80;101994.25;5036407;28;20045;-79
2022/02/02 08:21:08;;;;;;;9.05;3.38;;;;;;;17.28;50.76;101983.00;5019771;28;20056;-79
2022/02/02 08:23:34;;;;;;;8.60;3.10;;;;;;;17.32;50.75;101987.38;5019445;28;20475;-78
2022/02/02 08:26:01;;;;;;;7.43;2.97;;;;;;;17.37;50.64;101993.50;5002779;28;20033;-78
2022/02/02 08:28:27;;;;;;;7.97;3.00;;;;;;;17.42;50.69;101990.94;5036865;28;20036;-78
2022/02/02 08:30:52;;;;;;;7.03;2.65;;;;;;;17.44;50.48;101981.41;5039240;28;20384;-79
2022/02/02 08:33:24;;;;;;;6.32;3.00;;;;;;;17.43;50.57;101982.28;5046283;28;20025;-79
2022/02/02 08:35:54;;;;;;;7.90;2.97;;;;;;;17.42;50.55;101991.81;5010328;28;20029;-79
2022/02/02 08:38:37;;;;;;;7.50;2.97;;;;;;;17.42;50.70;101991.81;5007786;28;20044;-79
2022/02/02 08:41:09;;;;;;;6.30;2.85;;;;;;;17.43;50.45;102000.50;5007748;28;20030;-79
2022/02/02 08:43:41;;;;;;;7.60;3.30;;;;;;;17.40;50.92;102005.69;5005069;28;20057;-78
2022/02/02 08:46:11;;;;;;;6.35;2.70;;;;;;;17.38;50.64;102000.47;5004660;28;20029;-80
2022/02/02 08:48:40;;;;;;;8.07;3.20;;;;;;;17.41;50.80;102003.06;5002657;28;20446;-78
2022/02/02 08:51:11;;;;;;;7.00;2.97;;;;;;;17.44;50.68;102010.03;5017438;28;20474;-78
2022/02/02 08:53:49;;;;;;;6.93;3.05;;;;;;;17.49;50.64;102008.38;5002465;28;20463;-77
2022/02/02 08:58:59;;;;;;;5.40;2.70;;;;;;;17.54;50.57;102013.63;5019421;28;20071;-77
2022/02/02 09:01:29;;;;;;;7.50;2.92;;;;;;;17.56;50.46;102015.38;5004554;28;20094;-78
2022/02/02 09:06:38;;;;;;;6.05;2.50;;;;;;;17.61;50.36;102018.88;5007738;28;20044;-78
2022/02/02 09:09:17;;;;;;;7.00;2.95;;;;;;;17.60;50.27;102018.88;5002615;28;20460;-78
2022/02/02 09:25:18;;;;;;;;;;;;;;;17.61;50.54;102034.50;5022493;28;20060;-78
2022/02/02 09:35:38;;;;;;;6.22;2.67;;;;;;;17.57;50.65;102048.38;5037339;28;20045;-78
2022/02/02 09:38:03;;;;;;;5.97;2.72;;;;;;;17.54;50.74;102050.91;5019138;28;20475;-78
2022/02/02 09:43:18;;;;;;;7.07;2.58;;;;;;;17.56;50.75;102057.00;5036653;28;20037;-78
2022/02/02 09:45:45;;;;;;;6.82;2.60;;;;;;;17.57;50.69;102058.78;5036423;28;20021;-78
2022/02/02 09:48:21;;;;;;;7.65;2.80;;;;;;;17.56;50.49;102053.53;5017927;28;20049;-78
2022/02/02 09:50:52;;;;;;;6.20;2.40;;;;;;;17.53;50.64;102050.91;5018065;28;20106;-78
2022/02/02 09:53:34;;;;;;;7.68;2.97;;;;;;;17.54;50.52;102068.28;4986885;28;20021;-78
2022/02/02 10:06:56;;;;;;;6.28;2.40;;;;;;;17.46;50.92;102089.91;5034937;28;20025;-78
2022/02/02 10:09:53;;;;;;;6.07;2.45;;;;;;;17.46;50.95;102094.19;5019114;28;20452;-80
2022/02/02 10:15:04;;;;;;;6.65;2.90;;;;;;;17.47;50.96;102095.97;5005348;28;20034;-79
2022/02/02 10:17:32;;;;;;;7.35;2.47;;;;;;;17.45;50.97;102105.47;5001467;28;20045;-77
2022/02/02 10:19:57;;;;;;;6.82;2.88;;;;;;;17.45;50.95;102106.34;5017768;28;20030;-78
2022/02/02 10:22:27;;;;;;;5.43;2.80;;;;;;;17.46;50.96;102107.22;5001525;28;20033;-77
2022/02/02 10:24:54;;;;;;;7.15;2.65;;;;;;;17.47;50.69;102117.66;5017365;28;20022;-77
2022/02/02 10:27:38;;;;;;;6.50;2.30;;;;;;;17.49;50.74;102112.47;5018190;28;20053;-77
2022/02/02 10:30:09;;;;;;;7.18;2.70;;;;;;;17.50;50.76;102110.72;5018338;28;20422;-77
2022/02/02 10:32:36;;;;;;;8.02;2.80;;;;;;;17.48;50.84;102109.00;5017793;28;20506;-77
2022/02/02 10:35:03;;;;;;;7.25;2.58;;;;;;;17.48;50.66;102109.00;5017810;28;20033;-78
2022/02/02 10:37:31;;;;;;;5.65;2.38;;;;;;;17.51;50.84;102121.16;5001464;28;20382;-78
2022/02/02 10:39:56;;;;;;;6.18;2.72;;;;;;;17.51;50.76;102133.28;5002466;28;20605;-78
2022/02/02 10:42:43;;;;;;;6.50;2.88;;;;;;;17.52;50.72;102140.25;4985151;28;20124;-78
2022/02/02 10:45:29;;;;;;;6.85;2.60;;;;;;;17.52;50.28;102150.66;5017500;28;20021;-78
2022/02/02 10:48:12;;;;;;;8.18;2.75;;;;;;;17.53;50.78;102152.41;5018665;28;20030;-78
2022/02/02 10:50:47;;;;;;;5.70;2.17;;;;;;;17.53;50.59;102155.91;5020005;28;20033;-78
2022/02/02 10:53:33;;;;;;;6.50;2.70;;;;;;;17.53;50.41;102150.69;5019070;28;20502;-78
2022/02/02 11:07:08;;;;;;;;;;;;;;;17.54;50.43;102165.44;5026398;28;20044;-78
2022/02/02 11:09:34;;;;;;;4.72;2.00;;;;;;;17.54;50.28;102170.66;5025790;28;19963;-78
2022/02/02 11:12:02;;;;;;;7.57;2.60;;;;;;;17.54;50.57;102161.97;5022568;28;20034;-77
2022/02/02 11:15:10;;;;;;;7.65;2.60;;;;;;;17.52;50.42;102161.06;5020138;28;20386;-77
2022/02/02 11:18:00;;;;;;;6.57;2.90;;;;;;;17.54;50.49;102164.56;5009956;28;20033;-77
2022/02/02 11:20:26;;;;;;;6.22;2.35;;;;;;;17.56;50.49;102163.72;5018921;28;20379;-78
2022/02/02 11:22:53;;;;;;;7.57;2.85;;;;;;;17.58;50.51;102167.22;4989498;28;20030;-78
2022/02/02 11:25:22;;;;;;;7.40;2.42;;;;;;;17.60;50.45;102164.66;5022213;28;20487;-78
2022/02/02 11:27:52;;;;;;;5.57;2.35;;;;;;;17.59;50.38;102153.34;5022704;28;20434;-78
2022/02/02 11:30:24;;;;;;;7.32;2.42;;;;;;;17.56;50.65;102155.91;5022815;28;20029;-78
2022/02/02 11:32:58;;;;;;;6.18;2.47;;;;;;;17.55;50.16;102155.91;5022007;28;20053;-78
2022/02/02 11:35:36;;;;;;;6.35;2.63;;;;;;;17.59;50.39;102147.25;5026856;28;20029;-79
2022/02/02 11:38:06;;;;;;;4.78;2.20;;;;;;;17.59;50.73;102147.25;5023266;28;20093;-79
2022/02/02 11:40:40;;;;;;;7.32;2.35;;;;;;;17.57;50.52;102147.28;5046372;28;20022;-78
2022/02/02 11:43:14;;;;;;;6.53;2.40;;;;;;;17.59;50.71;102139.47;5029882;28;20025;-79
2022/02/02 11:46:00;;;;;;;6.88;2.47;;;;;;;17.59;50.40;102139.47;5012489;28;20053;-78
2022/02/02 11:48:45;;;;;;;10.55;2.80;;;;;;;17.58;50.44;102136.00;5042452;28;20045;-77
2022/02/02 11:51:10;;;;;;;24.77;6.28;;;;;;;17.61;50.39;102143.81;5042271;28;20108;-77
2022/02/02 11:53:48;;;;;;;54.10;12.38;;;;;;;17.60;50.60;102151.63;5024246;28;20537;-78
2022/02/02 11:56:13;;;;;;;48.47;14.45;;;;;;;17.59;50.76;102153.34;5039358;28;20430;-76
2022/02/02 11:58:38;;;;;;;51.15;14.77;;;;;;;17.60;50.87;102160.31;5023038;28;20112;-76
2022/02/02 12:03:42;;;;;;;43.50;14.15;;;;;;;17.63;50.88;102165.53;5039240;28;20038;-76
2022/02/02 12:18:55;;;;;;;35.80;13.63;;;;;;;17.63;50.86;102160.34;5039342;28;20025;-77
2022/02/02 12:47:48;;;;;;;26.90;10.73;;;;;;;17.64;51.20;102130.00;5038350;28;20037;-77
2022/02/02 12:50:13;;;;;;;27.02;10.50;;;;;;;17.63;51.21;102123.88;5036727;28;20037;-77
2022/02/02 12:58:15;;;;;;;19.90;9.52;;;;;;;17.62;51.21;102123.91;5037616;28;20123;-78
2022/02/02 13:03:07;;;;;;;22.35;9.20;;;;;;;17.63;51.19;102123.03;5018613;28;20110;-77
2022/02/02 13:05:39;;;;;;;19.55;9.15;;;;;;;17.62;51.30;102119.56;5018808;28;20028;-77
2022/02/02 13:08:05;;;;;;;22.55;10.35;;;;;;;17.62;51.47;102110.88;5036557;28;20048;-77
2022/02/02 13:10:33;;;;;;;22.05;9.13;;;;;;;17.62;51.17;102119.56;5019688;28;20132;-77
2022/02/02 13:13:12;;;;;;;23.17;9.95;;;;;;;17.62;51.11;102118.69;5019839;28;20387;-77
2022/02/02 13:15:45;;;;;;;21.75;9.45;;;;;;;17.62;51.54;102121.28;5038146;28;20025;-77
2022/02/02 13:18:28;;;;;;;18.55;8.88;;;;;;;17.60;51.26;102120.41;5020938;28;20533;-77
2022/02/02 13:26:04;;;;;;;18.00;9.30;;;;;;;17.60;51.28;102123.88;5036627;28;20414;-77
2022/02/02 13:28:55;;;;;;;18.80;8.20;;;;;;;17.60;51.12;102125.59;5018986;28;20143;-77
2022/02/02 13:43:35;;;;;;;17.50;7.65;;;;;;;17.69;50.92;102134.38;5043509;28;20060;-78
2022/02/02 13:49:59;;;;;;;18.27;7.43;;;;;;;17.87;51.31;102131.09;4941043;29;20049;-78
2022/02/02 13:52:25;;;;;;;16.15;6.65;;;;;;;17.87;50.96;102132.84;4939059;29;20043;-78
2022/02/02 13:55:05;;;;;;;13.98;7.13;;;;;;;17.86;51.71;102139.78;5010699;28;20049;-77
2022/02/02 13:57:57;;;;;;;16.08;6.82;;;;;;;17.87;51.46;102145.88;5020708;28;20029;-77
2022/02/02 14:00:33;;;;;;;14.38;6.38;;;;;;;17.89;51.43;102145.03;5037931;28;20098;-78
2022/02/02 14:06:20;;;;;;;15.70;6.32;;;;;;;17.87;51.68;102133.72;5023176;28;20060;-77
2022/02/02 14:33:31;;;;;;;11.93;5.05;;;;;;;17.79;51.62;102156.19;5038304;28;20029;-77
2022/02/02 14:35:58;;;;;;;8.57;4.47;;;;;;;17.82;51.63;102147.56;5020353;28;20036;-77
2022/02/02 14:38:24;;;;;;;8.65;4.20;;;;;;;17.81;51.47;102151.88;5019327;28;20079;-77
2022/02/02 14:43:23;;;;;;;9.25;4.90;;;;;;;17.81;51.49;102161.38;5019450;28;20044;-77
2022/02/02 14:45:53;;;;;;;8.63;4.28;;;;;;;17.80;51.59;102152.72;5004501;28;20037;-79
2022/02/02 14:48:32;;;;;;;10.65;4.38;;;;;;;17.79;51.55;102153.59;5004809;28;20104;-78
2022/02/02 15:28:47;;;;;;;6.35;3.35;;;;;;;17.69;52.20;102149.13;4998696;28;20033;-77
2022/02/02 15:31:14;;;;;;;6.75;3.00;;;;;;;17.68;52.04;102156.06;5003630;28;20476;-76
2022/02/02 15:33:39;;;;;;;9.40;3.15;;;;;;;17.69;52.35;102157.81;5003137;28;20043;-76
2022/02/02 15:38:52;;;;;;;7.22;3.15;;;;;;;17.68;52.33;102156.06;5037484;28;20076;-76
2022/02/02 15:41:24;;;;;;;5.85;2.88;;;;;;;17.68;52.42;102160.38;5037312;28;20052;-76
2022/02/02 15:55:38;;;;;;;9.82;2.97;;;;;;;17.66;52.69;102156.91;5022917;28;20503;-77
2022/02/02 16:05:14;;;;;;;6.88;2.88;;;;;;;17.58;52.99;102164.63;5036741;28;20052;-77
2022/02/02 16:07:39;;;;;;;7.97;2.95;;;;;;;17.59;52.88;102175.91;5020620;28;20042;-77
2022/02/02 16:10:08;;;;;;;7.75;3.00;;;;;;;17.58;52.96;102168.97;5007968;28;20021;-78
2022/02/02 16:12:43;;;;;;;6.82;3.22;;;;;;;17.59;53.27;102163.75;5006369;28;20468;-78
2022/02/02 16:39:08;;;;;;;16.77;4.95;;;;;;;17.77;53.55;102146.59;5040729;28;19917;-75
2022/02/02 16:44:19;;;;;;;14.88;4.30;;;;;;;17.77;53.66;102147.47;5022909;28;20090;-75
2022/02/02 16:46:44;;;;;;;11.82;4.38;;;;;;;17.79;54.07;102152.69;5017630;28;20056;-74
2022/02/02 16:49:10;;;;;;;13.02;4.15;;;;;;;17.79;53.88;102152.69;5033186;28;20547;-74
2022/02/02 16:51:36;;;;;;;11.60;4.05;;;;;;;17.78;54.07;102150.97;4997772;28;20045;-74
2022/02/02 16:54:04;;;;;;;10.48;3.88;;;;;;;17.78;54.16;102150.97;5015466;28;20384;-74
2022/02/02 16:56:56;;;;;;;11.75;3.53;;;;;;;17.78;54.35;102149.22;4997923;28;20041;-75
2022/02/02 17:34:54;;;;;;;6.40;2.83;;;;;;;17.68;54.19;102145.66;4950839;28;20032;-75
2022/02/02 17:40:15;;;;;;;5.70;2.58;;;;;;;17.67;54.47;102154.31;5003912;28;20036;-75
2022/02/02 18:20:18;;;;;;;4.82;2.45;;;;;;;17.72;54.41;102159.56;4984830;28;20045;-75
2022/02/02 18:22:49;;;;;;;5.05;2.40;;;;;;;17.73;54.63;102155.25;5020169;28;20030;-75
2022/02/02 18:25:23;;;;;;;4.20;2.35;;;;;;;17.72;54.26;102150.88;5014450;28;20172;-76
2022/02/02 18:35:48;;;;;;;3.53;2.15;;;;;;;17.61;54.41;102148.16;5020127;28;20464;-77
2022/02/02 18:46:33;;;;;;;4.25;2.17;;;;;;;17.53;54.46;102141.97;5036937;28;20030;-77
2022/02/02 18:55:31;;;;;;;5.20;2.67;;;;;;;17.52;54.46;102127.25;5013125;28;20068;-83
2022/02/02 18:57:28;;;;;;;6.38;2.80;;;;;;;17.51;54.43;102128.09;4988395;28;20091;-79
2022/02/02 19:00:11;;;;;;;5.10;2.90;;;;;;;17.51;54.21;102130.69;4997968;28;20041;-81
2022/02/02 20:09:48;;;;;;;7.40;3.92;;;;;;;17.48;56.45;102108.09;5016785;28;20502;-78
2022/02/02 20:12:11;;;;;;;7.45;3.45;;;;;;;17.48;56.24;102113.31;4996988;28;20038;-78
2022/02/02 20:14:36;;;;;;;8.05;3.78;;;;;;;17.47;56.34;102109.84;4985186;28;20030;-77
2022/02/02 20:17:03;;;;;;;9.35;3.83;;;;;;;17.48;56.36;102114.22;4997290;28;20388;-76
2022/02/02 20:19:29;;;;;;;7.53;4.10;;;;;;;17.48;56.40;102108.09;4990298;28;20037;-78
2022/02/02 20:21:57;;;;;;;7.10;3.85;;;;;;;17.48;56.35;102111.59;5000526;28;20092;-79
2022/02/02 20:24:26;;;;;;;7.18;3.97;;;;;;;17.47;56.37;102109.84;5000460;28;20034;-78
2022/02/02 20:26:53;;;;;;;7.85;3.90;;;;;;;17.48;56.36;102110.72;5004319;28;20485;-78
2022/02/02 20:29:18;;;;;;;8.73;3.97;;;;;;;17.47;56.27;102114.19;4996565;28;20022;-76
2022/02/02 20:31:44;;;;;;;7.75;4.47;;;;;;;17.47;56.24;102117.66;4995763;28;20034;-78
2022/02/02 20:34:11;;;;;;;7.25;3.97;;;;;;;17.46;56.28;102115.91;4964533;28;20038;-76
2022/02/02 20:36:39;;;;;;;7.10;4.10;;;;;;;17.46;56.24;102115.91;4992628;28;20027;-76
2022/02/02 20:39:18;;;;;;;7.03;3.95;;;;;;;17.46;56.22;102109.81;4995375;28;20034;-76
2022/02/02 20:41:46;;;;;;;6.75;3.80;;;;;;;17.46;56.20;102115.03;5000618;28;20033;-76
2022/02/02 20:44:21;;;;;;;7.25;4.28;;;;;;;17.46;56.17;102115.03;5014805;28;20048;-77
2022/02/02 21:00:51;;;;;;;6.13;3.47;;;;;;;17.46;56.10;102112.41;5001142;28;19924;-76
2022/02/02 21:14:25;;;;;;;7.10;3.60;;;;;;;17.44;55.77;102101.13;4993640;28;20045;-75
2022/02/02 21:16:54;;;;;;;6.55;3.45;;;;;;;17.44;55.69;102103.72;5039240;28;20534;-76
2022/02/02 21:19:29;;;;;;;5.93;3.58;;;;;;;17.43;55.73;102112.41;4985029;28;20475;-77
2022/02/02 21:21:59;;;;;;;5.97;3.72;;;;;;;17.43;55.85;102109.78;5005784;28;20033;-77
2022/02/02 21:29:25;;;;;;;5.47;3.40;;;;;;;17.43;55.63;102109.78;5022844;28;20464;-76
2022/02/02 21:31:50;;;;;;;5.28;3.15;;;;;;;17.43;55.85;102108.06;5002184;28;20072;-75
2022/02/02 21:34:19;;;;;;;5.90;3.42;;;;;;;17.43;55.96;102108.06;5004713;28;20030;-76
2022/02/02 21:36:45;;;;;;;6.30;3.30;;;;;;;17.43;55.77;102108.06;4994942;28;20033;-77
2022/02/02 21:39:20;;;;;;;5.22;3.33;;;;;;;17.42;55.71;102106.31;5014650;28;20578;-77
2022/02/02 21:41:47;;;;;;;6.53;2.83;;;;;;;17.43;55.64;102113.25;5038959;28;20029;-76
2022/02/02 21:44:13;;;;;;;4.45;2.83;;;;;;;17.42;55.84;102108.94;5004072;28;20022;-75
2022/02/02 21:46:41;;;;;;;3.95;2.83;;;;;;;17.42;55.67;102119.34;4984789;28;20034;-76
2022/02/02 21:49:09;;;;;;;5.03;3.05;;;;;;;17.43;55.78;102118.47;4999108;28;20030;-76
2022/02/02 21:51:41;;;;;;;6.03;3.35;;;;;;;17.43;55.56;102117.59;5000556;28;20107;-75
2022/02/02 21:54:06;;;;;;;5.15;3.13;;;;;;;17.42;56.01;102115.84;4984111;28;20040;-75
2022/02/02 21:56:32;;;;;;;4.72;2.95;;;;;;;17.42;55.68;102116.75;4983675;28;20112;-76
2022/02/02 21:58:58;;;;;;;5.88;3.28;;;;;;;17.40;55.75;102110.63;5008367;28;20116;-77
2022/02/02 22:01:26;;;;;;;4.93;2.90;;;;;;;17.41;55.58;102106.31;5019607;28;20036;-77
2022/02/02 22:03:51;;;;;;;4.35;2.85;;;;;;;17.41;55.70;102104.56;5017838;28;20395;-76
2022/02/02 22:06:17;;;;;;;4.88;3.00;;;;;;;17.42;55.68;102108.03;5017693;28;20029;-75
2022/02/02 22:08:43;;;;;;;5.53;2.78;;;;;;;17.43;55.56;102102.00;4997210;28;20153;-76
2022/02/02 22:11:09;;;;;;;4.25;2.60;;;;;;;17.41;55.51;102108.91;5016649;28;20037;-75
2022/02/02 22:13:38;;;;;;;5.47;2.72;;;;;;;17.40;55.50;102100.22;5006152;28;20431;-75
2022/02/02 22:16:09;;;;;;;4.40;2.38;;;;;;;17.41;55.46;102101.09;5000444;28;20029;-77
2022/02/02 22:18:37;;;;;;;4.07;2.60;;;;;;;17.40;55.46;102097.63;5035946;28;20463;-75
2022/02/02 22:21:02;;;;;;;5.70;2.78;;;;;;;17.40;55.28;102095.03;5016992;28;20064;-75
2022/02/02 22:23:28;;;;;;;4.55;2.50;;;;;;;17.41;55.35;102101.09;5035067;28;20468;-75
2022/02/02 22:25:56;;;;;;;3.92;2.40;;;;;;;17.40;55.39;102092.41;4997248;28;20128;-74
2022/02/02 22:28:21;;;;;;;4.70;2.65;;;;;;;17.40;55.38;102088.97;4994876;28;20434;-74